createdAt,value
2023-03-24T00:01:58.448Z,8.44
2023-03-24T00:06:02.745Z,8.30
2023-03-24T00:10:09.485Z,8.24
2023-03-24T00:14:12.499Z,8.18
2023-03-24T00:18:14.713Z,8.25
2023-03-24T00:22:17.055Z,8.27
2023-03-24T00:26:19.107Z,8.22
2023-03-24T00:30:21.613Z,8.05
2023-03-24T00:34:23.906Z,7.89
2023-03-24T00:38:27.011Z,7.63
2023-03-24T00:42:29.488Z,7.02
2023-03-24T00:46:33.808Z,6.72
2023-03-24T00:50:35.913Z,6.60
2023-03-24T00:54:40.634Z,6.72
2023-03-24T00:58:43.107Z,6.77
2023-03-24T01:02:46.889Z,6.93
2023-03-24T01:06:49.877Z,6.92
2023-03-24T01:10:55.768Z,6.86
2023-03-24T01:15:00.994Z,6.95
2023-03-24T01:19:04.183Z,7.00
2023-03-24T01:23:07.311Z,6.92
2023-03-24T01:27:09.884Z,7.06
2023-03-24T01:31:12.515Z,6.72
2023-03-24T01:35:14.982Z,6.63
2023-03-24T01:39:17.222Z,6.66
2023-03-24T01:43:27.716Z,6.58
2023-03-24T01:47:29.888Z,6.32
2023-03-24T01:51:42.172Z,6.33
2023-03-24T01:55:48.836Z,6.52
2023-03-24T01:59:59.595Z,6.47
2023-03-24T02:04:31.035Z,6.53
2023-03-24T02:08:55.104Z,6.21
2023-03-24T02:13:01.486Z,5.91
2023-03-24T02:17:09.983Z,5.92
2023-03-24T02:21:12.230Z,6.02
2023-03-24T02:25:51.429Z,6.23
2023-03-24T02:29:56.373Z,6.18
2023-03-24T02:34:07.559Z,6.13
2023-03-24T02:38:51.526Z,5.96
2023-03-24T02:42:56.743Z,6.07
2023-03-24T02:47:18.896Z,6.20
2023-03-24T02:51:56.397Z,6.21
2023-03-24T02:56:19.643Z,6.25
2023-03-24T03:00:59.391Z,6.28
2023-03-24T03:05:36.820Z,6.23
2023-03-24T03:09:49.500Z,6.21
2023-03-24T03:14:00.817Z,6.18
2023-03-24T03:18:11.554Z,6.02
2023-03-24T03:22:19.050Z,5.95
2023-03-24T03:26:28.779Z,5.74
2023-03-24T03:30:40.134Z,5.44
2023-03-24T03:34:45.278Z,5.04
2023-03-24T03:39:13.943Z,5.17
2023-03-24T03:43:16.686Z,5.32
2023-03-24T03:47:21.369Z,5.40
2023-03-24T03:51:24.524Z,5.53
2023-03-24T03:55:31.782Z,5.54
2023-03-24T03:59:36.834Z,5.56
2023-03-24T04:04:09.766Z,5.37
2023-03-24T04:08:42.825Z,5.27
2023-03-24T04:13:25.364Z,5.29
2023-03-24T04:18:06.604Z,5.33
2023-03-24T04:22:57.781Z,5.46
2023-03-24T04:27:09.696Z,5.39
2023-03-24T04:31:27.187Z,5.39
2023-03-24T04:35:35.814Z,5.43
2023-03-24T04:40:06.025Z,5.45
2023-03-24T04:44:10.804Z,5.35
2023-03-24T04:48:26.246Z,5.34
2023-03-24T04:52:42.774Z,5.27
2023-03-24T04:56:54.112Z,5.32
2023-03-24T05:01:06.035Z,5.33
2023-03-24T05:05:08.785Z,5.33
2023-03-24T05:09:23.891Z,5.39
2023-03-24T05:13:26.088Z,5.36
2023-03-24T05:17:32.513Z,5.35
2023-03-24T05:21:35.282Z,5.44
2023-03-24T05:25:39.098Z,5.41
2023-03-24T05:29:41.370Z,5.32
2023-03-24T05:33:45.841Z,5.30
2023-03-24T05:37:51.897Z,5.18
2023-03-24T05:41:54.541Z,5.09
2023-03-24T05:45:56.809Z,5.11
2023-03-24T05:50:06.004Z,5.28
2023-03-24T05:54:08.655Z,5.32
2023-03-24T05:58:16.629Z,5.18
2023-03-24T06:02:25.235Z,5.14
2023-03-24T06:06:33.178Z,5.31
2023-03-24T06:10:37.032Z,5.58
2023-03-24T06:19:24.847Z,5.64
2023-03-24T06:23:47.268Z,5.83
2023-03-24T06:27:52.967Z,6.11
2023-03-24T06:31:58.425Z,6.38
2023-03-24T06:36:02.117Z,6.72
2023-03-24T06:40:07.344Z,7.06
2023-03-24T06:44:09.840Z,7.46
2023-03-24T06:48:12.286Z,7.79
2023-03-24T06:52:14.448Z,8.21
2023-03-24T06:56:20.080Z,8.67
2023-03-24T07:00:31.565Z,9.15
2023-03-24T07:04:55.220Z,9.70
2023-03-24T07:09:02.504Z,9.96
2023-03-24T07:13:07.100Z,10.26
2023-03-24T07:17:11.345Z,10.47
2023-03-24T07:21:30.942Z,10.39
2023-03-24T07:25:53.896Z,10.47
2023-03-24T07:30:14.605Z,10.43
2023-03-24T07:34:20.032Z,10.65
2023-03-24T07:38:24.834Z,10.36
2023-03-24T07:42:29.854Z,10.47
2023-03-24T07:46:52.713Z,10.61
2023-03-24T07:50:56.130Z,10.80
2023-03-24T07:55:16.883Z,10.86
2023-03-24T07:59:54.399Z,10.80
2023-03-24T08:04:17.618Z,10.89
2023-03-24T08:08:32.473Z,11.00
2023-03-24T08:12:34.560Z,11.14
2023-03-24T08:16:39.112Z,11.20
2023-03-24T08:20:41.238Z,11.51
2023-03-24T08:24:43.311Z,11.63
2023-03-24T08:28:45.455Z,11.56
2023-03-24T08:33:05.957Z,11.83
2023-03-24T08:37:08.769Z,11.98
2023-03-24T08:41:10.992Z,12.30
2023-03-24T08:45:13.762Z,12.51
2023-03-24T08:49:17.129Z,12.71
2023-03-24T08:53:19.485Z,12.84
2023-03-24T08:57:21.860Z,12.90
2023-03-24T09:01:24.828Z,12.97
2023-03-24T09:05:43.222Z,13.16
2023-03-24T09:09:46.265Z,13.45
2023-03-24T09:13:48.753Z,13.67
2023-03-24T09:17:51.077Z,13.95
2023-03-24T09:21:53.243Z,14.14
2023-03-24T09:25:56.080Z,14.21
2023-03-24T09:29:58.245Z,14.33
2023-03-24T09:34:03.835Z,14.47
2023-03-24T09:38:06.335Z,14.62
2023-03-24T09:42:23.548Z,14.62
2023-03-24T09:46:51.179Z,14.87
2023-03-24T09:50:58.710Z,15.06
2023-03-24T09:55:04.401Z,15.27
2023-03-24T09:59:18.119Z,15.49
2023-03-24T10:03:23.125Z,15.61
2023-03-24T10:07:47.093Z,16.09
2023-03-24T10:12:10.852Z,16.59
2023-03-24T10:16:28.754Z,17.20
2023-03-24T10:20:53.011Z,17.71
2023-03-24T10:25:16.936Z,18.02
2023-03-24T10:29:28.200Z,18.45
2023-03-24T10:33:31.368Z,18.45
2023-03-24T10:37:33.579Z,18.88
2023-03-24T10:41:36.659Z,19.07
2023-03-24T10:45:44.187Z,19.07
2023-03-24T10:50:00.978Z,19.12
2023-03-24T10:54:18.489Z,19.29
2023-03-24T10:58:29.861Z,19.30
2023-03-24T11:02:33.728Z,19.65
2023-03-24T11:06:36.475Z,19.52
2023-03-24T11:10:39.138Z,19.49
2023-03-24T11:14:45.396Z,19.60
2023-03-24T11:19:01.731Z,19.81
2023-03-24T11:23:03.863Z,20.08
2023-03-24T11:27:06.162Z,20.15
2023-03-24T11:31:12.122Z,20.10
2023-03-24T11:35:18.706Z,19.85
2023-03-24T11:39:29.184Z,19.72
2023-03-24T11:43:32.002Z,19.67
2023-03-24T11:47:38.550Z,19.47
2023-03-24T11:51:45.925Z,19.30
2023-03-24T11:55:53.739Z,19.25
2023-03-24T12:00:22.197Z,19.22
2023-03-24T12:05:02.558Z,19.05
2023-03-24T12:09:23.540Z,18.96
2023-03-24T12:13:49.880Z,18.96
2023-03-24T12:18:14.105Z,18.90
2023-03-24T12:22:21.254Z,18.85
2023-03-24T12:26:30.942Z,18.73
2023-03-24T12:30:49.979Z,18.78
2023-03-24T12:35:16.645Z,18.82
2023-03-24T12:39:33.690Z,18.80
2023-03-24T12:44:13.465Z,18.74
2023-03-24T12:48:33.919Z,18.83
2023-03-24T12:52:58.145Z,18.90
2023-03-24T12:57:14.542Z,19.03
2023-03-24T13:01:29.709Z,19.02
2023-03-24T13:05:35.661Z,19.20
2023-03-24T13:10:06.943Z,19.36
2023-03-24T13:14:19.014Z,19.47
2023-03-24T13:18:34.767Z,19.62
2023-03-24T13:22:37.891Z,19.67
2023-03-24T13:27:12.619Z,19.67
2023-03-24T13:31:16.282Z,19.62
2023-03-24T13:35:53.414Z,19.78
2023-03-24T13:39:59.254Z,19.70
2023-03-24T13:44:20.012Z,19.78
2023-03-24T13:48:37.826Z,19.84
2023-03-24T13:52:47.394Z,19.74
2023-03-24T13:57:00.644Z,19.84
2023-03-24T14:01:09.957Z,19.85
2023-03-24T14:05:33.749Z,19.89
2023-03-24T14:10:00.099Z,20.00
2023-03-24T14:14:19.415Z,20.04
2023-03-24T14:18:25.514Z,19.89
2023-03-24T14:22:36.455Z,19.89
2023-03-24T14:26:38.534Z,19.87
2023-03-24T14:31:15.924Z,20.01
2023-03-24T14:35:44.511Z,19.91
2023-03-24T14:39:49.874Z,19.74
2023-03-24T14:44:00.635Z,19.69
2023-03-24T14:48:06.402Z,19.50
2023-03-24T14:52:24.871Z,19.28
2023-03-24T14:56:34.134Z,19.23
2023-03-24T15:00:51.848Z,19.17
2023-03-24T15:05:16.897Z,18.99
2023-03-24T15:09:19.137Z,19.04
2023-03-24T15:13:43.648Z,19.15
2023-03-24T15:17:47.028Z,19.10
2023-03-24T15:21:56.790Z,19.00
2023-03-24T15:25:59.008Z,18.84
2023-03-24T15:30:01.122Z,18.73
2023-03-24T15:34:10.643Z,18.81
2023-03-24T15:38:22.298Z,19.10
2023-03-24T15:42:26.033Z,19.34
2023-03-24T15:46:31.302Z,19.23
2023-03-24T15:50:54.162Z,19.13
2023-03-24T15:55:02.213Z,19.21
2023-03-24T15:59:04.326Z,19.10
2023-03-24T16:03:07.570Z,19.09
2023-03-24T16:07:29.624Z,19.50
2023-03-24T16:11:31.715Z,19.82
2023-03-24T16:15:33.956Z,19.06
2023-03-24T16:19:36.056Z,18.46
2023-03-24T16:23:38.300Z,18.06
2023-03-24T16:27:40.745Z,17.92
2023-03-24T16:31:44.378Z,17.92
2023-03-24T16:35:46.734Z,17.88
2023-03-24T16:39:49.042Z,18.05
2023-03-24T16:43:53.133Z,17.82
2023-03-24T16:47:55.584Z,17.39
2023-03-24T16:51:57.772Z,17.13
2023-03-24T16:55:59.982Z,16.77
2023-03-24T17:00:10.195Z,16.61
2023-03-24T17:04:19.427Z,16.30
2023-03-24T17:08:22.422Z,16.20
2023-03-24T17:12:24.724Z,15.96
2023-03-24T17:16:27.893Z,15.77
2023-03-24T17:20:30.391Z,15.46
2023-03-24T17:24:41.819Z,15.26
2023-03-24T17:28:44.559Z,15.09
2023-03-24T17:32:47.609Z,14.95
2023-03-24T17:36:51.123Z,14.81
2023-03-24T17:41:01.497Z,14.66
2023-03-24T17:45:04.993Z,14.58
2023-03-24T17:49:07.198Z,14.44
2023-03-24T17:53:09.998Z,14.36
2023-03-24T17:57:12.168Z,14.22
2023-03-24T18:01:18.457Z,14.19
2023-03-24T18:05:23.412Z,14.11
2023-03-24T18:09:27.566Z,14.05
2023-03-24T18:13:29.688Z,13.95
2023-03-24T18:17:31.970Z,13.84
2023-03-24T18:21:34.332Z,13.73
2023-03-24T18:25:36.840Z,13.60
2023-03-24T18:29:39.711Z,13.54
2023-03-24T18:33:46.024Z,13.45
2023-03-24T18:37:48.829Z,13.38
2023-03-24T18:41:53.465Z,13.31
2023-03-24T18:45:56.074Z,13.27
2023-03-24T18:49:58.234Z,13.24
2023-03-24T18:54:01.066Z,13.16
2023-03-24T18:58:03.170Z,13.17
2023-03-24T19:02:05.763Z,13.14
2023-03-24T19:06:10.053Z,13.18
2023-03-24T19:10:12.738Z,13.01
2023-03-24T19:14:14.810Z,13.01
2023-03-24T19:18:17.019Z,12.89
2023-03-24T19:22:22.282Z,12.76
2023-03-24T19:26:24.418Z,12.62
2023-03-24T19:30:26.606Z,12.71
2023-03-24T19:34:31.105Z,12.78
2023-03-24T19:38:33.630Z,12.76
2023-03-24T19:42:38.839Z,12.77
2023-03-24T19:46:40.954Z,12.73
2023-03-24T19:50:44.677Z,12.71
2023-03-24T19:54:48.157Z,12.70
2023-03-24T19:58:50.592Z,12.68
2023-03-24T20:02:52.996Z,12.60
2023-03-24T20:06:55.722Z,12.50
2023-03-24T20:10:57.890Z,12.49
2023-03-24T20:15:00.178Z,12.55
2023-03-24T20:19:02.424Z,12.51
2023-03-24T20:23:04.628Z,12.46
2023-03-24T20:27:07.510Z,12.42
2023-03-24T20:31:11.057Z,12.34
2023-03-24T20:35:13.371Z,12.12
2023-03-24T20:39:16.073Z,11.97
2023-03-24T20:43:18.290Z,11.94
2023-03-24T20:47:20.752Z,11.90
2023-03-24T20:51:23.148Z,11.77
2023-03-24T20:55:26.296Z,11.66
2023-03-24T20:59:28.852Z,11.77
2023-03-24T21:03:31.185Z,11.71
2023-03-24T21:07:33.398Z,11.50
2023-03-24T21:11:35.696Z,11.51
2023-03-24T21:15:45.069Z,11.47
2023-03-24T21:19:47.187Z,11.52
2023-03-24T21:23:52.718Z,11.70
2023-03-24T21:27:55.716Z,11.74
2023-03-24T21:31:57.784Z,11.74
2023-03-24T21:35:59.833Z,11.53
2023-03-24T21:40:02.878Z,11.40
2023-03-24T21:44:06.643Z,11.37
2023-03-24T21:48:13.005Z,11.20
2023-03-24T21:52:19.093Z,10.94
2023-03-24T21:56:21.793Z,11.07
2023-03-24T22:00:26.326Z,11.09
2023-03-24T22:04:28.644Z,11.10
2023-03-24T22:08:30.960Z,11.01
2023-03-24T22:12:34.299Z,10.88
2023-03-24T22:16:36.788Z,10.79
2023-03-24T22:20:38.938Z,10.66
2023-03-24T22:24:41.633Z,10.52
2023-03-24T22:28:44.548Z,10.51
2023-03-24T22:32:46.862Z,10.62
2023-03-24T22:36:49.044Z,10.63
2023-03-24T22:40:51.781Z,10.47
2023-03-24T22:44:54.001Z,10.30
2023-03-24T22:48:56.407Z,10.23
2023-03-24T22:52:58.458Z,10.26
2023-03-24T22:57:00.769Z,10.24
2023-03-24T23:01:03.875Z,10.30
2023-03-24T23:05:06.406Z,10.11
2023-03-24T23:09:08.755Z,9.89
2023-03-24T23:13:11.426Z,9.97
2023-03-24T23:17:16.161Z,9.90
2023-03-24T23:21:18.326Z,9.87
2023-03-24T23:25:20.546Z,9.75
2023-03-24T23:29:22.609Z,9.68
2023-03-24T23:33:26.137Z,9.55
2023-03-24T23:37:32.100Z,9.59
2023-03-24T23:41:34.641Z,9.70
2023-03-24T23:45:36.898Z,9.70
2023-03-24T23:49:41.622Z,9.73
2023-03-24T23:53:43.703Z,9.84
2023-03-24T23:57:46.737Z,9.92
